N300KS LSGG-LFPB
Flight info
| Callsign | N300KS |
|---|---|
| Flight time | 0h 49m |
| Altitude | 34000 |
| Route | SIROD L615 LISMO DCT DJL |
| Aircraft | C750/M-SBDE3FGHRWXY/S |
Departure
| Time | 2026-05-07 19:30 |
|---|---|
| Airport | Geneva International Airport (LSGG) |
Arrival
| Time | 2026-05-07 20:19 |
|---|---|
| Airport | Paris-Le Bourget International Airport (LFPB) |
| Time | Latitude | Longitude | Altitude | Speed | Heading |
|---|---|---|---|---|---|
| 2026-05-07 19:11 | 46.23566 | 6.09934 | 1388 ft | 0 kts | 139° |
| 2026-05-07 19:24 | 46.23565 | 6.09935 | 1394 ft | 1 kts | 139° |
| 2026-05-07 19:24 | 46.23550 | 6.09932 | 1400 ft | 5 kts | 199° |
| 2026-05-07 19:24 | 46.23495 | 6.09885 | 1396 ft | 8 kts | 191° |
| 2026-05-07 19:25 | 46.23457 | 6.09909 | 1398 ft | 6 kts | 141° |
| 2026-05-07 19:25 | 46.23417 | 6.09958 | 1401 ft | 8 kts | 155° |
| 2026-05-07 19:25 | 46.23365 | 6.09982 | 1401 ft | 8 kts | 140° |
| 2026-05-07 19:25 | 46.23346 | 6.10010 | 1402 ft | 0 kts | 134° |
| 2026-05-07 19:28 | 46.23343 | 6.10018 | 1402 ft | 3 kts | 118° |
| 2026-05-07 19:28 | 46.23333 | 6.10070 | 1399 ft | 7 kts | 108° |
| 2026-05-07 19:28 | 46.23310 | 6.10141 | 1404 ft | 8 kts | 93° |
| 2026-05-07 19:28 | 46.23340 | 6.10212 | 1397 ft | 0 kts | 45° |
| 2026-05-07 19:29 | 46.23340 | 6.10213 | 1397 ft | 1 kts | 45° |
| 2026-05-07 19:29 | 46.23610 | 6.10610 | 1382 ft | 120 kts | 45° |
| 2026-05-07 19:30 | 46.24283 | 6.11617 | 1841 ft | 144 kts | 46° |
| 2026-05-07 19:30 | 46.24941 | 6.12678 | 2812 ft | 138 kts | 49° |
| 2026-05-07 19:30 | 46.25581 | 6.13772 | 3570 ft | 152 kts | 50° |
| 2026-05-07 19:30 | 46.26304 | 6.15015 | 4238 ft | 170 kts | 49° |
| 2026-05-07 19:31 | 46.27114 | 6.16318 | 5098 ft | 174 kts | 48° |
| 2026-05-07 19:31 | 46.27940 | 6.17617 | 5930 ft | 183 kts | 49° |
| 2026-05-07 19:31 | 46.28849 | 6.19018 | 6605 ft | 199 kts | 46° |
| 2026-05-07 19:31 | 46.29918 | 6.20492 | 7221 ft | 226 kts | 44° |
| 2026-05-07 19:32 | 46.31107 | 6.22118 | 8101 ft | 242 kts | 44° |
| 2026-05-07 19:32 | 46.32352 | 6.23780 | 9363 ft | 241 kts | 43° |
| 2026-05-07 19:32 | 46.33608 | 6.25405 | 10401 ft | 248 kts | 42° |
| 2026-05-07 19:32 | 46.34478 | 6.26528 | 10890 ft | 258 kts | 41° |
| 2026-05-07 19:33 | 46.35919 | 6.28184 | 11623 ft | 272 kts | 33° |
| 2026-05-07 19:33 | 46.37681 | 6.29340 | 12286 ft | 287 kts | 14° |
| 2026-05-07 19:33 | 46.39720 | 6.29508 | 12767 ft | 300 kts | 350° |
| 2026-05-07 19:33 | 46.41702 | 6.28614 | 13427 ft | 303 kts | 335° |
| 2026-05-07 19:34 | 46.43683 | 6.27380 | 14126 ft | 315 kts | 335° |
| 2026-05-07 19:34 | 46.45766 | 6.26333 | 15023 ft | 318 kts | 341° |
| 2026-05-07 19:34 | 46.47992 | 6.25417 | 15222 ft | 347 kts | 342° |
| 2026-05-07 19:34 | 46.50382 | 6.24410 | 15407 ft | 371 kts | 342° |
| 2026-05-07 19:35 | 46.52936 | 6.23329 | 15484 ft | 390 kts | 342° |
| 2026-05-07 19:35 | 46.55565 | 6.22274 | 15708 ft | 397 kts | 342° |
| 2026-05-07 19:35 | 46.58234 | 6.21186 | 15656 ft | 397 kts | 342° |
| 2026-05-07 19:35 | 46.60863 | 6.19940 | 15601 ft | 397 kts | 338° |
| 2026-05-07 19:36 | 46.63412 | 6.18392 | 15329 ft | 397 kts | 334° |
| 2026-05-07 19:36 | 46.65863 | 6.16595 | 14988 ft | 387 kts | 327° |
| 2026-05-07 19:36 | 46.68004 | 6.14238 | 15150 ft | 391 kts | 316° |
| 2026-05-07 19:36 | 46.69807 | 6.11287 | 15003 ft | 388 kts | 306° |
| 2026-05-07 19:37 | 46.71328 | 6.08046 | 14830 ft | 388 kts | 301° |
| 2026-05-07 19:37 | 46.72680 | 6.04676 | 14849 ft | 383 kts | 299° |
| 2026-05-07 19:37 | 46.74064 | 6.01320 | 15033 ft | 387 kts | 300° |
| 2026-05-07 19:37 | 46.75456 | 5.97940 | 15034 ft | 389 kts | 300° |
| 2026-05-07 19:38 | 46.76929 | 5.94632 | 15024 ft | 389 kts | 304° |
| 2026-05-07 19:38 | 46.78651 | 5.91589 | 15023 ft | 390 kts | 311° |
| 2026-05-07 19:38 | 46.80530 | 5.88731 | 15021 ft | 390 kts | 313° |
| 2026-05-07 19:38 | 46.82361 | 5.85895 | 15232 ft | 367 kts | 310° |
| 2026-05-07 19:39 | 46.83972 | 5.83070 | 15923 ft | 363 kts | 308° |
| 2026-05-07 19:39 | 46.85593 | 5.80201 | 16641 ft | 369 kts | 309° |
| 2026-05-07 19:39 | 46.87295 | 5.77366 | 17383 ft | 373 kts | 310° |
| 2026-05-07 19:39 | 46.89032 | 5.74513 | 18143 ft | 378 kts | 310° |
| 2026-05-07 19:40 | 46.90761 | 5.71602 | 18832 ft | 381 kts | 309° |
| 2026-05-07 19:40 | 46.92495 | 5.68644 | 19505 ft | 384 kts | 309° |
| 2026-05-07 19:40 | 46.94251 | 5.65680 | 20193 ft | 387 kts | 309° |
| 2026-05-07 19:40 | 46.96029 | 5.62697 | 20900 ft | 391 kts | 309° |
| 2026-05-07 19:41 | 46.97817 | 5.59681 | 21623 ft | 394 kts | 309° |
| 2026-05-07 19:41 | 46.99597 | 5.56660 | 22357 ft | 398 kts | 309° |
| 2026-05-07 19:41 | 47.01415 | 5.53575 | 23112 ft | 402 kts | 309° |
| 2026-05-07 19:41 | 47.03280 | 5.50419 | 23854 ft | 406 kts | 309° |
| 2026-05-07 19:42 | 47.05104 | 5.47326 | 24502 ft | 408 kts | 309° |
| 2026-05-07 19:42 | 47.06992 | 5.44115 | 25188 ft | 411 kts | 308° |
| 2026-05-07 19:42 | 47.08840 | 5.40968 | 25867 ft | 414 kts | 308° |
| 2026-05-07 19:42 | 47.10720 | 5.37765 | 26572 ft | 416 kts | 308° |
| 2026-05-07 19:43 | 47.12616 | 5.34534 | 27298 ft | 418 kts | 308° |
| 2026-05-07 19:43 | 47.14527 | 5.31269 | 27899 ft | 424 kts | 308° |
| 2026-05-07 19:43 | 47.16465 | 5.27973 | 28491 ft | 429 kts | 309° |
| 2026-05-07 19:43 | 47.18672 | 5.24945 | 29055 ft | 439 kts | 318° |
| 2026-05-07 19:44 | 47.21218 | 5.22403 | 29652 ft | 447 kts | 326° |
| 2026-05-07 19:44 | 47.24053 | 5.20412 | 30022 ft | 460 kts | 335° |
| 2026-05-07 19:44 | 47.27200 | 5.19073 | 30024 ft | 480 kts | 345° |
| 2026-05-07 19:44 | 47.30551 | 5.18497 | 30017 ft | 490 kts | 354° |
| 2026-05-07 19:45 | 47.37397 | 5.19068 | 29969 ft | 492 kts | 353° |
| 2026-05-07 19:45 | 47.40696 | 5.18011 | 30036 ft | 485 kts | 340° |
| 2026-05-07 19:45 | 47.43872 | 5.16317 | 30042 ft | 483 kts | 334° |
| 2026-05-07 19:46 | 47.46799 | 5.13941 | 29990 ft | 478 kts | 322° |
| 2026-05-07 19:46 | 47.49348 | 5.10833 | 30047 ft | 476 kts | 315° |
| 2026-05-07 19:46 | 47.53907 | 5.03857 | 30052 ft | 474 kts | 311° |
| 2026-05-07 19:47 | 47.58612 | 4.96987 | 30059 ft | 475 kts | 313° |
| 2026-05-07 19:47 | 47.63232 | 4.90007 | 30055 ft | 475 kts | 311° |
| 2026-05-07 19:48 | 47.67895 | 4.83056 | 30058 ft | 475 kts | 312° |
| 2026-05-07 19:48 | 47.72532 | 4.76077 | 30059 ft | 475 kts | 312° |
| 2026-05-07 19:49 | 47.77176 | 4.69082 | 30060 ft | 475 kts | 312° |
| 2026-05-07 19:49 | 47.79477 | 4.65623 | 29758 ft | 460 kts | 312° |
| 2026-05-07 19:49 | 47.81666 | 4.62314 | 29081 ft | 442 kts | 312° |
| 2026-05-07 19:50 | 47.83793 | 4.59083 | 28429 ft | 433 kts | 312° |
| 2026-05-07 19:50 | 47.85905 | 4.55876 | 27785 ft | 430 kts | 312° |
| 2026-05-07 19:50 | 47.87995 | 4.52711 | 27173 ft | 427 kts | 312° |
| 2026-05-07 19:50 | 47.90073 | 4.49559 | 26576 ft | 424 kts | 312° |
| 2026-05-07 19:51 | 47.92128 | 4.46431 | 25992 ft | 421 kts | 312° |
| 2026-05-07 19:51 | 47.94166 | 4.43326 | 25423 ft | 418 kts | 312° |
| 2026-05-07 19:51 | 47.96190 | 4.40241 | 24865 ft | 414 kts | 312° |
| 2026-05-07 19:51 | 47.98195 | 4.37183 | 24318 ft | 411 kts | 312° |
| 2026-05-07 19:52 | 48.00188 | 4.34137 | 23777 ft | 408 kts | 312° |
| 2026-05-07 19:52 | 48.02166 | 4.31110 | 23117 ft | 406 kts | 313° |
| 2026-05-07 19:52 | 48.04126 | 4.28108 | 22362 ft | 401 kts | 312° |
| 2026-05-07 19:52 | 48.06062 | 4.25142 | 21613 ft | 396 kts | 312° |
| 2026-05-07 19:53 | 48.07955 | 4.22236 | 20898 ft | 393 kts | 312° |
| 2026-05-07 19:53 | 48.09848 | 4.19325 | 20192 ft | 389 kts | 312° |
| 2026-05-07 19:53 | 48.11725 | 4.16438 | 19502 ft | 386 kts | 312° |
| 2026-05-07 19:53 | 48.13587 | 4.13570 | 18826 ft | 382 kts | 312° |
| 2026-05-07 19:54 | 48.15430 | 4.10728 | 18139 ft | 379 kts | 312° |
| 2026-05-07 19:54 | 48.17260 | 4.07903 | 17389 ft | 376 kts | 312° |
| 2026-05-07 19:54 | 48.19067 | 4.05109 | 16654 ft | 372 kts | 312° |
| 2026-05-07 19:54 | 48.20871 | 4.02319 | 15935 ft | 369 kts | 312° |
| 2026-05-07 19:55 | 48.22647 | 3.99568 | 15234 ft | 366 kts | 312° |
| 2026-05-07 19:55 | 48.24402 | 3.96848 | 14672 ft | 361 kts | 312° |
| 2026-05-07 19:55 | 48.26146 | 3.94141 | 14194 ft | 360 kts | 313° |
| 2026-05-07 19:55 | 48.27884 | 3.91441 | 13701 ft | 359 kts | 313° |
| 2026-05-07 19:56 | 48.29612 | 3.88754 | 13177 ft | 356 kts | 312° |
| 2026-05-07 19:56 | 48.31326 | 3.86086 | 12651 ft | 353 kts | 312° |
| 2026-05-07 19:56 | 48.33007 | 3.83467 | 12144 ft | 351 kts | 312° |
| 2026-05-07 19:56 | 48.34691 | 3.80840 | 11640 ft | 348 kts | 312° |
| 2026-05-07 19:57 | 48.36348 | 3.78254 | 11139 ft | 333 kts | 312° |
| 2026-05-07 19:57 | 48.37900 | 3.75831 | 10639 ft | 312 kts | 312° |
| 2026-05-07 19:57 | 48.39369 | 3.73533 | 10141 ft | 296 kts | 312° |
| 2026-05-07 19:57 | 48.40760 | 3.71344 | 9610 ft | 284 kts | 311° |
| 2026-05-07 19:58 | 48.42107 | 3.69209 | 9066 ft | 278 kts | 311° |
| 2026-05-07 19:58 | 48.43433 | 3.67110 | 8532 ft | 276 kts | 312° |
| 2026-05-07 19:58 | 48.44756 | 3.65019 | 8018 ft | 275 kts | 312° |
| 2026-05-07 19:58 | 48.46076 | 3.62929 | 7516 ft | 275 kts | 312° |
| 2026-05-07 19:59 | 48.47389 | 3.60848 | 7043 ft | 273 kts | 312° |
| 2026-05-07 19:59 | 48.48664 | 3.58827 | 7009 ft | 261 kts | 312° |
| 2026-05-07 19:59 | 48.49937 | 3.56806 | 7017 ft | 269 kts | 312° |
| 2026-05-07 19:59 | 48.51233 | 3.54745 | 7024 ft | 272 kts | 312° |
| 2026-05-07 20:00 | 48.52540 | 3.52669 | 7020 ft | 273 kts | 312° |
| 2026-05-07 20:00 | 48.53830 | 3.50617 | 7024 ft | 274 kts | 312° |
| 2026-05-07 20:00 | 48.55142 | 3.48529 | 7016 ft | 274 kts | 312° |
| 2026-05-07 20:00 | 48.56452 | 3.46439 | 7021 ft | 274 kts | 312° |
| 2026-05-07 20:01 | 48.57763 | 3.44348 | 7020 ft | 274 kts | 312° |
| 2026-05-07 20:01 | 48.59078 | 3.42250 | 7018 ft | 274 kts | 312° |
| 2026-05-07 20:01 | 48.60390 | 3.40154 | 7015 ft | 275 kts | 312° |
| 2026-05-07 20:01 | 48.61698 | 3.38061 | 7013 ft | 274 kts | 312° |
| 2026-05-07 20:02 | 48.63006 | 3.35969 | 7015 ft | 275 kts | 312° |
| 2026-05-07 20:02 | 48.64317 | 3.33870 | 7014 ft | 274 kts | 312° |
| 2026-05-07 20:02 | 48.65626 | 3.31772 | 7013 ft | 274 kts | 312° |
| 2026-05-07 20:02 | 48.66934 | 3.29672 | 7017 ft | 274 kts | 312° |
| 2026-05-07 20:03 | 48.68246 | 3.27567 | 7011 ft | 274 kts | 312° |
| 2026-05-07 20:03 | 48.69552 | 3.25469 | 7018 ft | 274 kts | 312° |
| 2026-05-07 20:03 | 48.70857 | 3.23370 | 7018 ft | 274 kts | 312° |
| 2026-05-07 20:03 | 48.72163 | 3.21268 | 7011 ft | 274 kts | 312° |
| 2026-05-07 20:04 | 48.73458 | 3.19183 | 7020 ft | 273 kts | 312° |
| 2026-05-07 20:04 | 48.74759 | 3.17085 | 7017 ft | 273 kts | 312° |
| 2026-05-07 20:04 | 48.76060 | 3.14987 | 7024 ft | 273 kts | 312° |
| 2026-05-07 20:04 | 48.77365 | 3.12880 | 7022 ft | 273 kts | 312° |
| 2026-05-07 20:05 | 48.78645 | 3.10759 | 7006 ft | 272 kts | 308° |
| 2026-05-07 20:05 | 48.79318 | 3.08129 | 6929 ft | 269 kts | 276° |
| 2026-05-07 20:05 | 48.79302 | 3.05299 | 7019 ft | 270 kts | 267° |
| 2026-05-07 20:05 | 48.79265 | 3.02442 | 7022 ft | 270 kts | 271° |
| 2026-05-07 20:06 | 48.79378 | 2.99602 | 7021 ft | 270 kts | 274° |
| 2026-05-07 20:06 | 48.79542 | 2.96770 | 7017 ft | 270 kts | 274° |
| 2026-05-07 20:06 | 48.79663 | 2.93936 | 7018 ft | 269 kts | 273° |
| 2026-05-07 20:06 | 48.79760 | 2.91107 | 7023 ft | 269 kts | 272° |
| 2026-05-07 20:07 | 48.79868 | 2.88276 | 7015 ft | 269 kts | 273° |
| 2026-05-07 20:07 | 48.79985 | 2.85447 | 7014 ft | 269 kts | 273° |
| 2026-05-07 20:07 | 48.80098 | 2.82610 | 7014 ft | 269 kts | 273° |
| 2026-05-07 20:07 | 48.80207 | 2.79775 | 7016 ft | 270 kts | 273° |
| 2026-05-07 20:08 | 48.80317 | 2.76938 | 7018 ft | 270 kts | 273° |
| 2026-05-07 20:08 | 48.80426 | 2.74098 | 7012 ft | 269 kts | 273° |
| 2026-05-07 20:08 | 48.80535 | 2.71260 | 7018 ft | 269 kts | 273° |
| 2026-05-07 20:08 | 48.80641 | 2.68482 | 7012 ft | 269 kts | 273° |
| 2026-05-07 20:09 | 48.80747 | 2.65645 | 7013 ft | 270 kts | 273° |
| 2026-05-07 20:09 | 48.80854 | 2.62800 | 7021 ft | 270 kts | 273° |
| 2026-05-07 20:09 | 48.80960 | 2.59963 | 7020 ft | 270 kts | 273° |
| 2026-05-07 20:10 | 48.81169 | 2.54282 | 7016 ft | 270 kts | 273° |
| 2026-05-07 20:10 | 48.81266 | 2.51445 | 7016 ft | 270 kts | 273° |
| 2026-05-07 20:10 | 48.81356 | 2.48638 | 7020 ft | 269 kts | 273° |
| 2026-05-07 20:10 | 48.81448 | 2.45761 | 7009 ft | 270 kts | 273° |
| 2026-05-07 20:11 | 48.81521 | 2.42894 | 6512 ft | 280 kts | 271° |
| 2026-05-07 20:11 | 48.81470 | 2.39953 | 5931 ft | 275 kts | 266° |
| 2026-05-07 20:11 | 48.81163 | 2.37117 | 5239 ft | 267 kts | 257° |
| 2026-05-07 20:11 | 48.80720 | 2.34461 | 4847 ft | 258 kts | 256° |
| 2026-05-07 20:12 | 48.80304 | 2.31805 | 4641 ft | 258 kts | 259° |
| 2026-05-07 20:12 | 48.80231 | 2.29068 | 4500 ft | 265 kts | 271° |
| 2026-05-07 20:12 | 48.80348 | 2.26362 | 4204 ft | 252 kts | 278° |
| 2026-05-07 20:12 | 48.80772 | 2.24032 | 4048 ft | 211 kts | 294° |
| 2026-05-07 20:13 | 48.81579 | 2.22361 | 3865 ft | 186 kts | 318° |
| 2026-05-07 20:13 | 48.82617 | 2.21348 | 3595 ft | 173 kts | 335° |
| 2026-05-07 20:13 | 48.83801 | 2.20761 | 3203 ft | 186 kts | 351° |
| 2026-05-07 20:13 | 48.85068 | 2.20786 | 3127 ft | 180 kts | 8° |
| 2026-05-07 20:14 | 48.86256 | 2.21184 | 2991 ft | 167 kts | 17° |
| 2026-05-07 20:14 | 48.87333 | 2.21665 | 2684 ft | 158 kts | 19° |
| 2026-05-07 20:14 | 48.88327 | 2.22240 | 2559 ft | 148 kts | 25° |
| 2026-05-07 20:14 | 48.89222 | 2.22963 | 2572 ft | 143 kts | 32° |
| 2026-05-07 20:15 | 48.90060 | 2.23811 | 2470 ft | 145 kts | 37° |
| 2026-05-07 20:15 | 48.90829 | 2.24791 | 2439 ft | 147 kts | 45° |
| 2026-05-07 20:15 | 48.91465 | 2.25921 | 2297 ft | 136 kts | 53° |
| 2026-05-07 20:15 | 48.92034 | 2.27028 | 2115 ft | 131 kts | 54° |
| 2026-05-07 20:16 | 48.92551 | 2.28117 | 2026 ft | 126 kts | 58° |
| 2026-05-07 20:16 | 48.92975 | 2.29267 | 1945 ft | 123 kts | 65° |
| 2026-05-07 20:16 | 48.93317 | 2.30449 | 1856 ft | 122 kts | 69° |
| 2026-05-07 20:16 | 48.93614 | 2.31664 | 1715 ft | 123 kts | 71° |
| 2026-05-07 20:17 | 48.93904 | 2.32893 | 1562 ft | 124 kts | 72° |
| 2026-05-07 20:17 | 48.94247 | 2.34113 | 1361 ft | 126 kts | 68° |
| 2026-05-07 20:17 | 48.94576 | 2.35336 | 1171 ft | 124 kts | 68° |
| 2026-05-07 20:17 | 48.94900 | 2.36535 | 1029 ft | 121 kts | 68° |
| 2026-05-07 20:18 | 48.95223 | 2.37714 | 829 ft | 120 kts | 68° |
| 2026-05-07 20:18 | 48.95538 | 2.38893 | 648 ft | 120 kts | 67° |
| 2026-05-07 20:18 | 48.95856 | 2.40068 | 451 ft | 120 kts | 67° |
| 2026-05-07 20:18 | 48.96169 | 2.41231 | 299 ft | 117 kts | 68° |
| 2026-05-07 20:19 | 48.96471 | 2.42352 | 166 ft | 108 kts | 67° |
| 2026-05-07 20:19 | 48.96703 | 2.43212 | 170 ft | 53 kts | 67° |
| 2026-05-07 20:19 | 48.96799 | 2.43575 | 172 ft | 34 kts | 68° |
| 2026-05-07 20:19 | 48.96883 | 2.43883 | 175 ft | 30 kts | 68° |
| 2026-05-07 20:20 | 48.96928 | 2.44055 | 178 ft | 25 kts | 70° |
| 2026-05-07 20:20 | 48.96933 | 2.44276 | 179 ft | 18 kts | 114° |
| 2026-05-07 20:20 | 48.96861 | 2.44389 | 179 ft | 9 kts | 156° |
| 2026-05-07 20:20 | 48.96808 | 2.44415 | 178 ft | 9 kts | 165° |
| 2026-05-07 20:21 | 48.96739 | 2.44444 | 176 ft | 12 kts | 163° |
| 2026-05-07 20:21 | 48.96653 | 2.44486 | 174 ft | 14 kts | 162° |
| 2026-05-07 20:21 | 48.96556 | 2.44518 | 173 ft | 14 kts | 168° |
| 2026-05-07 20:21 | 48.96460 | 2.44547 | 172 ft | 15 kts | 172° |
| 2026-05-07 20:22 | 48.96361 | 2.44530 | 172 ft | 14 kts | 197° |
| 2026-05-07 20:22 | 48.96306 | 2.44597 | 172 ft | 10 kts | 109° |